Aviation Digital Data Service (ADDS)

Output produced by METARs form (1845 UTC 18 June 2019)
found at http://www.aviationweather.gov/metar/data/
 
METAR text: CYYT 181800Z 30016G25KT 15SM BKN042 16/10 A2971 RMK SC7 SLP064 DENSITY ALT 1000FT
Conditions at: CYYT (ST JOHNS ARP , NL, CA) observed 1800 UTC 18 June 2019
Temperature: 16.0°C (61°F)
Dewpoint: 10.0°C (50°F) [RH = 68%]
Pressure (altimeter): 29.71 inches Hg (1006.2 mb)
[Sea-level pressure: 1006.4 mb]
Winds: from the WNW (300 degrees) at 18 MPH (16 knots; 8.2 m/s)
gusting to 29 MPH (25 knots; 12.9 m/s)
Visibility: 15 miles (24 km)
Ceiling: 4200 feet AGL
Clouds: broken clouds at 4200 feet AGL
Weather: no significant weather observed at this time

METAR text: CYYT 181700Z 31014KT 15SM BKN050 17/10 A2971 RMK SC7 SLP064 DENSITY ALT 1100FT
Conditions at: CYYT (ST JOHNS ARP , NL, CA) observed 1700 UTC 18 June 2019
Temperature: 17.0°C (63°F)
Dewpoint: 10.0°C (50°F) [RH = 63%]
Pressure (altimeter): 29.71 inches Hg (1006.2 mb)
[Sea-level pressure: 1006.4 mb]
Winds: from the NW (310 degrees) at 16 MPH (14 knots; 7.2 m/s)
Visibility: 15 miles (24 km)
Ceiling: 5000 feet AGL
Clouds: broken clouds at 5000 feet AGL
Weather: no significant weather observed at this time

METAR text: CYYT 181600Z 30013G18KT 15SM BKN046 17/10 A2971 RMK SC7 SLP064 DENSITY ALT 1000FT
Conditions at: CYYT (ST JOHNS ARP , NL, CA) observed 1600 UTC 18 June 2019
Temperature: 17.0°C (63°F)
Dewpoint: 10.0°C (50°F) [RH = 63%]
Pressure (altimeter): 29.71 inches Hg (1006.2 mb)
[Sea-level pressure: 1006.4 mb]
Winds: from the WNW (300 degrees) at 15 MPH (13 knots; 6.7 m/s)
gusting to 21 MPH (18 knots; 9.3 m/s)
Visibility: 15 miles (24 km)
Ceiling: 4600 feet AGL
Clouds: broken clouds at 4600 feet AGL
Weather: no significant weather observed at this time

METAR text: CYYT 181500Z 32016G21KT 15SM BKN022 16/10 A2971 RMK SC6 SLP066 DENSITY ALT 1000FT
Conditions at: CYYT (ST JOHNS ARP , NL, CA) observed 1500 UTC 18 June 2019
Temperature: 16.0°C (61°F)
Dewpoint: 10.0°C (50°F) [RH = 68%]
Pressure (altimeter): 29.71 inches Hg (1006.2 mb)
[Sea-level pressure: 1006.6 mb]
Winds: from the NW (320 degrees) at 18 MPH (16 knots; 8.2 m/s)
gusting to 24 MPH (21 knots; 10.8 m/s)
Visibility: 15 miles (24 km)
Ceiling: 2200 feet AGL
Clouds: broken clouds at 2200 feet AGL
Weather: no significant weather observed at this time

METAR text: CYYT 181400Z 28017KT 15SM BKN020 15/10 A2972 RMK SC7 CU ASOCTD SLP070 DENSITY ALT 800FT
Conditions at: CYYT (ST JOHNS ARP , NL, CA) observed 1400 UTC 18 June 2019
Temperature: 15.0°C (59°F)
Dewpoint: 10.0°C (50°F) [RH = 72%]
Pressure (altimeter): 29.72 inches Hg (1006.5 mb)
[Sea-level pressure: 1007.0 mb]
Winds: from the W (280 degrees) at 20 MPH (17 knots; 8.7 m/s)
Visibility: 15 miles (24 km)
Ceiling: 2000 feet AGL
Clouds: broken clouds at 2000 feet AGL
Weather: no significant weather observed at this time

METAR text: CYYT 181339Z 30014KT 15SM BKN018 14/11 A2973 RMK SC7 SLP071 DENSITY ALT 700FT
Conditions at: CYYT (ST JOHNS ARP , NL, CA) observed 1339 UTC 18 June 2019
Temperature: 14.0°C (57°F)
Dewpoint: 11.0°C (52°F) [RH = 82%]
Pressure (altimeter): 29.73 inches Hg (1006.9 mb)
[Sea-level pressure: 1007.1 mb]
Winds: from the WNW (300 degrees) at 16 MPH (14 knots; 7.2 m/s)
Visibility: 15 miles (24 km)
Ceiling: 1800 feet AGL
Clouds: broken clouds at 1800 feet AGL
Weather: no significant weather observed at this time

METAR text: CYYT 181332Z 29013G19KT 15SM BKN014 14/11 A2973 RMK SC7 SLP071 DENSITY ALT 700FT
Conditions at: CYYT (ST JOHNS ARP , NL, CA) observed 1332 UTC 18 June 2019
Temperature: 14.0°C (57°F)
Dewpoint: 11.0°C (52°F) [RH = 82%]
Pressure (altimeter): 29.73 inches Hg (1006.9 mb)
[Sea-level pressure: 1007.1 mb]
Winds: from the WNW (290 degrees) at 15 MPH (13 knots; 6.7 m/s)
gusting to 22 MPH (19 knots; 9.8 m/s)
Visibility: 15 miles (24 km)
Ceiling: 1400 feet AGL
Clouds: broken clouds at 1400 feet AGL
Weather: no significant weather observed at this time

METAR text: CYYT 181300Z 29010KT 15SM BKN007 12/11 A2973 RMK SF7 SLP071 DENSITY ALT 500FT
Conditions at: CYYT (ST JOHNS ARP , NL, CA) observed 1300 UTC 18 June 2019
Temperature: 12.0°C (54°F)
Dewpoint: 11.0°C (52°F) [RH = 94%]
Pressure (altimeter): 29.73 inches Hg (1006.9 mb)
[Sea-level pressure: 1007.1 mb]
Winds: from the WNW (290 degrees) at 12 MPH (10 knots; 5.1 m/s)
Visibility: 15 miles (24 km)
Ceiling: 700 feet AGL
Clouds: broken clouds at 700 feet AGL
Weather: no significant weather observed at this time

METAR text: CYYT 181251Z 31009G16KT 15SM OVC006 11/11 A2973 RMK SF8 SLP072
Conditions at: CYYT (ST JOHNS ARP , NL, CA) observed 1251 UTC 18 June 2019
Temperature: 11.0°C (52°F)
Dewpoint: 11.0°C (52°F) [RH = 100%]
Pressure (altimeter): 29.73 inches Hg (1006.9 mb)
[Sea-level pressure: 1007.2 mb]
Winds: from the NW (310 degrees) at 10 MPH (9 knots; 4.6 m/s)
gusting to 18 MPH (16 knots; 8.2 m/s)
Visibility: 15 miles (24 km)
Ceiling: 600 feet AGL
Clouds: overcast cloud deck at 600 feet AGL
Weather: no significant weather observed at this time

METAR text: CYYT 181215Z 30009KT 12SM BKN004 OVC008 11/10 A2973 RMK SF7SF1 VIS LWR W SLP073
Conditions at: CYYT (ST JOHNS ARP , NL, CA) observed 1215 UTC 18 June 2019
Temperature: 11.0°C (52°F)
Dewpoint: 10.0°C (50°F) [RH = 94%]
Pressure (altimeter): 29.73 inches Hg (1006.9 mb)
[Sea-level pressure: 1007.3 mb]
Winds: from the WNW (300 degrees) at 10 MPH (9 knots; 4.6 m/s)
Visibility: 12 miles (19 km)
Ceiling: 400 feet AGL
Clouds: broken clouds at 400 feet AGL
overcast cloud deck at 800 feet AGL
Weather: no significant weather observed at this time

METAR text: CYYT 181205Z 30009KT 8SM R16/4000VP6000FT/U BKN003 OVC008 10/10 A2973 RMK SF6SF2 VIS LWR W-N SLP073
Conditions at: CYYT (ST JOHNS ARP , NL, CA) observed 1205 UTC 18 June 2019
Temperature: 10.0°C (50°F)
Dewpoint: 10.0°C (50°F) [RH = 100%]
Pressure (altimeter): 29.73 inches Hg (1006.9 mb)
[Sea-level pressure: 1007.3 mb]
Winds: from the WNW (300 degrees) at 10 MPH (9 knots; 4.6 m/s)
Visibility: 8 miles (13 km)
Ceiling: 300 feet AGL
Clouds: broken clouds at 300 feet AGL
overcast cloud deck at 800 feet AGL
Weather: no significant weather observed at this time

METAR text: CYYT 181200Z 29009KT 1 1/2SM R29/4500VP6000FT/U R16/2800VP6000FT/U BR OVC003 10/10 A2973 RMK FG5ST3 SLP073
Conditions at: CYYT (ST JOHNS ARP , NL, CA) observed 1200 UTC 18 June 2019
Temperature: 10.0°C (50°F)
Dewpoint: 10.0°C (50°F) [RH = 100%]
Pressure (altimeter): 29.73 inches Hg (1006.9 mb)
[Sea-level pressure: 1007.3 mb]
Winds: from the WNW (290 degrees) at 10 MPH (9 knots; 4.6 m/s)
Visibility: 1.50 miles (2.41 km)
Ceiling: 300 feet AGL
Clouds: overcast cloud deck at 300 feet AGL
Weather: BR  (mist)

METAR text: CYYT 181156Z 29009KT 1SM R29/3500VP6000FT/U R16/3500FT/N BR OVC002 10/10 A2973 RMK FG7ST1 SLP073
Conditions at: CYYT (ST JOHNS ARP , NL, CA) observed 1156 UTC 18 June 2019
Temperature: 10.0°C (50°F)
Dewpoint: 10.0°C (50°F) [RH = 100%]
Pressure (altimeter): 29.73 inches Hg (1006.9 mb)
[Sea-level pressure: 1007.3 mb]
Winds: from the WNW (290 degrees) at 10 MPH (9 knots; 4.6 m/s)
Visibility: 1.00 miles (1.61 km)
Ceiling: 200 feet AGL
Clouds: overcast cloud deck at 200 feet AGL
Weather: BR  (mist)

METAR text: CYYT 181100Z 29011KT 1/4SM R29/1600FT/N R16/1400FT/N FG VV001 09/09 A2973 RMK FG8 SLP074
Conditions at: CYYT (ST JOHNS ARP , NL, CA) observed 1100 UTC 18 June 2019
Temperature: 9.0°C (48°F)
Dewpoint: 9.0°C (48°F) [RH = 100%]
Pressure (altimeter): 29.73 inches Hg (1006.9 mb)
[Sea-level pressure: 1007.4 mb]
Winds: from the WNW (290 degrees) at 13 MPH (11 knots; 5.7 m/s)
Visibility: 0.25 miles (0.40 km)
Ceiling: indefinite ceiling with vertical visibility of 100 feet AGL
Clouds: obscured sky
Weather: FG  (fog)

METAR text: CYYT 181029Z 28010KT 1/4SM R29/1200V2000FT/U R16/1400FT/U FG VV001 09/09 A2973 RMK FG8 SLP073
Conditions at: CYYT (ST JOHNS ARP , NL, CA) observed 1029 UTC 18 June 2019
Temperature: 9.0°C (48°F)
Dewpoint: 9.0°C (48°F) [RH = 100%]
Pressure (altimeter): 29.73 inches Hg (1006.9 mb)
[Sea-level pressure: 1007.3 mb]
Winds: from the W (280 degrees) at 12 MPH (10 knots; 5.1 m/s)
Visibility: 0.25 miles (0.40 km)
Ceiling: indefinite ceiling with vertical visibility of 100 feet AGL
Clouds: obscured sky
Weather: FG  (fog)

METAR text: CYYT 181000Z 28008KT 1/4SM R29/1200V1800FT/D R16/1200FT/N -DZ FG VV001 08/08 A2973 RMK FG8 SLP074
Conditions at: CYYT (ST JOHNS ARP , NL, CA) observed 1000 UTC 18 June 2019
Temperature: 8.0°C (46°F)
Dewpoint: 8.0°C (46°F) [RH = 100%]
Pressure (altimeter): 29.73 inches Hg (1006.9 mb)
[Sea-level pressure: 1007.4 mb]
Winds: from the W (280 degrees) at 9 MPH (8 knots; 4.1 m/s)
Visibility: 0.25 miles (0.40 km)
Ceiling: indefinite ceiling with vertical visibility of 100 feet AGL
Clouds: obscured sky
Weather: -DZ FG  (light drizzle, fog)

METAR text: CYYT 180923Z 28009KT 1/2SM R29/2400FT/N R16/2000FT/N -DZ FG VV002 09/09 A2973 RMK FG8 SLP072
Conditions at: CYYT (ST JOHNS ARP , NL, CA) observed 0923 UTC 18 June 2019
Temperature: 9.0°C (48°F)
Dewpoint: 9.0°C (48°F) [RH = 100%]
Pressure (altimeter): 29.73 inches Hg (1006.9 mb)
[Sea-level pressure: 1007.2 mb]
Winds: from the W (280 degrees) at 10 MPH (9 knots; 4.6 m/s)
Visibility: 0.50 miles (0.80 km)
Ceiling: indefinite ceiling with vertical visibility of 200 feet AGL
Clouds: obscured sky
Weather: -DZ FG  (light drizzle, fog)

METAR text: CYYT 180918Z 29009KT 1SM R29/6000FT/D R16/2600VP6000FT/D BR OVC002 09/09 A2973 RMK FG6ST2 SLP072
Conditions at: CYYT (ST JOHNS ARP , NL, CA) observed 0918 UTC 18 June 2019
Temperature: 9.0°C (48°F)
Dewpoint: 9.0°C (48°F) [RH = 100%]
Pressure (altimeter): 29.73 inches Hg (1006.9 mb)
[Sea-level pressure: 1007.2 mb]
Winds: from the WNW (290 degrees) at 10 MPH (9 knots; 4.6 m/s)
Visibility: 1.00 miles (1.61 km)
Ceiling: 200 feet AGL
Clouds: overcast cloud deck at 200 feet AGL
Weather: BR  (mist)

METAR text: CYYT 180911Z 29009KT 2 1/2SM BR BKN003 OVC020 09/09 A2973 RMK FG1ST6SC1 SLP072
Conditions at: CYYT (ST JOHNS ARP , NL, CA) observed 0911 UTC 18 June 2019
Temperature: 9.0°C (48°F)
Dewpoint: 9.0°C (48°F) [RH = 100%]
Pressure (altimeter): 29.73 inches Hg (1006.9 mb)
[Sea-level pressure: 1007.2 mb]
Winds: from the WNW (290 degrees) at 10 MPH (9 knots; 4.6 m/s)
Visibility: 2.50 miles (4.02 km)
Ceiling: 300 feet AGL
Clouds: broken clouds at 300 feet AGL
overcast cloud deck at 2000 feet AGL
Weather: BR  (mist)

METAR text: CYYT 180900Z 29007KT 2 1/4SM BR BKN019 OVC070 09/09 A2973 RMK FG1SC4AC3 SLP072
Conditions at: CYYT (ST JOHNS ARP , NL, CA) observed 0900 UTC 18 June 2019
Temperature: 9.0°C (48°F)
Dewpoint: 9.0°C (48°F) [RH = 100%]
Pressure (altimeter): 29.73 inches Hg (1006.9 mb)
[Sea-level pressure: 1007.2 mb]
Winds: from the WNW (290 degrees) at 8 MPH (7 knots; 3.6 m/s)
Visibility: 2.25 miles (3.62 km)
Ceiling: 1900 feet AGL
Clouds: broken clouds at 1900 feet AGL
overcast cloud deck at 7000 feet AGL
Weather: BR  (mist)

METAR text: CYYT 180845Z 27006KT 1SM R29/3000FT/U R16/2600FT/N BR BKN004 OVC070 09/08 A2972 RMK FG3ST2AC3 SLP071
Conditions at: CYYT (ST JOHNS ARP , NL, CA) observed 0845 UTC 18 June 2019
Temperature: 9.0°C (48°F)
Dewpoint: 8.0°C (46°F) [RH = 93%]
Pressure (altimeter): 29.72 inches Hg (1006.5 mb)
[Sea-level pressure: 1007.1 mb]
Winds: from the W (270 degrees) at 7 MPH (6 knots; 3.1 m/s)
Visibility: 1.00 miles (1.61 km)
Ceiling: 400 feet AGL
Clouds: broken clouds at 400 feet AGL
overcast cloud deck at 7000 feet AGL
Weather: BR  (mist)

METAR text: CYYT 180831Z 28006KT 3/8SM R29/2800VP6000FT/D R16/2800FT/N -SHRA FG VV003 08/08 A2972 RMK FG8 TCU EMBD SLP071
Conditions at: CYYT (ST JOHNS ARP , NL, CA) observed 0831 UTC 18 June 2019
Temperature: 8.0°C (46°F)
Dewpoint: 8.0°C (46°F) [RH = 100%]
Pressure (altimeter): 29.72 inches Hg (1006.5 mb)
[Sea-level pressure: 1007.1 mb]
Winds: from the W (280 degrees) at 7 MPH (6 knots; 3.1 m/s)
Visibility: 0.38 miles (0.61 km)
Ceiling: indefinite ceiling with vertical visibility of 300 feet AGL
Clouds: obscured sky
Weather: -SHRA FG  (light rain showers, fog)

METAR text: CYYT 180800Z 29008KT 3/8SM R29/5000VP6000FT/D R16/3500FT/D FG VV003 08/08 A2972 RMK FG8 SLP071
Conditions at: CYYT (ST JOHNS ARP , NL, CA) observed 0800 UTC 18 June 2019
Temperature: 8.0°C (46°F)
Dewpoint: 8.0°C (46°F) [RH = 100%]
Pressure (altimeter): 29.72 inches Hg (1006.5 mb)
[Sea-level pressure: 1007.1 mb]
Winds: from the WNW (290 degrees) at 9 MPH (8 knots; 4.1 m/s)
Visibility: 0.38 miles (0.61 km)
Ceiling: indefinite ceiling with vertical visibility of 300 feet AGL
Clouds: obscured sky
Weather: FG  (fog)

METAR text: CYYT 180751Z 30009KT 1/2SM R29/P6000FT/D R16/4000VP6000FT/D FG VV003 08/08 A2972 RMK FG8 VIS HIER NE-SE SLP070
Conditions at: CYYT (ST JOHNS ARP , NL, CA) observed 0751 UTC 18 June 2019
Temperature: 8.0°C (46°F)
Dewpoint: 8.0°C (46°F) [RH = 100%]
Pressure (altimeter): 29.72 inches Hg (1006.5 mb)
[Sea-level pressure: 1007.0 mb]
Winds: from the WNW (300 degrees) at 10 MPH (9 knots; 4.6 m/s)
Visibility: 0.50 miles (0.80 km)
Ceiling: indefinite ceiling with vertical visibility of 300 feet AGL
Clouds: obscured sky
Weather: FG  (fog)

METAR text: CYYT 180739Z 29009KT 1 1/4SM BR SCT002 OVC008 08/08 A2972 RMK FG3SF1SF4 VIS HIER NE-SE SLP070
Conditions at: CYYT (ST JOHNS ARP , NL, CA) observed 0739 UTC 18 June 2019
Temperature: 8.0°C (46°F)
Dewpoint: 8.0°C (46°F) [RH = 100%]
Pressure (altimeter): 29.72 inches Hg (1006.5 mb)
[Sea-level pressure: 1007.0 mb]
Winds: from the WNW (290 degrees) at 10 MPH (9 knots; 4.6 m/s)
Visibility: 1.25 miles (2.01 km)
Ceiling: 800 feet AGL
Clouds: scattered clouds at 200 feet AGL
overcast cloud deck at 800 feet AGL
Weather: BR  (mist)

METAR text: CYYT 180724Z 29008KT 6SM BR FEW004 OVC008 08/08 A2972 RMK SF2SF6 VIS LWR W-NW SLP070
Conditions at: CYYT (ST JOHNS ARP , NL, CA) observed 0724 UTC 18 June 2019
Temperature: 8.0°C (46°F)
Dewpoint: 8.0°C (46°F) [RH = 100%]
Pressure (altimeter): 29.72 inches Hg (1006.5 mb)
[Sea-level pressure: 1007.0 mb]
Winds: from the WNW (290 degrees) at 9 MPH (8 knots; 4.1 m/s)
Visibility: 6 miles (10 km)
Ceiling: 800 feet AGL
Clouds: few clouds at 400 feet AGL
overcast cloud deck at 800 feet AGL
Weather: BR  (mist)

METAR text: CYYT 180700Z 30007KT 6SM -SHRA BR FEW003 OVC011 08/08 A2972 RMK SF1SF7 VIS LWR W-NW NE TCU EMBD SLP071
Conditions at: CYYT (ST JOHNS ARP , NL, CA) observed 0700 UTC 18 June 2019
Temperature: 8.0°C (46°F)
Dewpoint: 8.0°C (46°F) [RH = 100%]
Pressure (altimeter): 29.72 inches Hg (1006.5 mb)
[Sea-level pressure: 1007.1 mb]
Winds: from the WNW (300 degrees) at 8 MPH (7 knots; 3.6 m/s)
Visibility: 6 miles (10 km)
Ceiling: 1100 feet AGL
Clouds: few clouds at 300 feet AGL
overcast cloud deck at 1100 feet AGL
Weather: -SHRA BR  (light rain showers, mist)

METAR text: CYYT 180654Z 29007KT 6SM -SHRA BR FEW003 OVC011 08/08 A2972 RMK SF1SF7 TCU EMBD SLP071
Conditions at: CYYT (ST JOHNS ARP , NL, CA) observed 0654 UTC 18 June 2019
Temperature: 8.0°C (46°F)
Dewpoint: 8.0°C (46°F) [RH = 100%]
Pressure (altimeter): 29.72 inches Hg (1006.5 mb)
[Sea-level pressure: 1007.1 mb]
Winds: from the WNW (290 degrees) at 8 MPH (7 knots; 3.6 m/s)
Visibility: 6 miles (10 km)
Ceiling: 1100 feet AGL
Clouds: few clouds at 300 feet AGL
overcast cloud deck at 1100 feet AGL
Weather: -SHRA BR  (light rain showers, mist)

METAR text: CYYT 180621Z 29007KT 5SM BR FEW002 FEW006 OVC013 08/08 A2972 RMK SF1SF1SC6 VIS LWR SW-N SLP071
Conditions at: CYYT (ST JOHNS ARP , NL, CA) observed 0621 UTC 18 June 2019
Temperature: 8.0°C (46°F)
Dewpoint: 8.0°C (46°F) [RH = 100%]
Pressure (altimeter): 29.72 inches Hg (1006.5 mb)
[Sea-level pressure: 1007.1 mb]
Winds: from the WNW (290 degrees) at 8 MPH (7 knots; 3.6 m/s)
Visibility: 5 miles ( 8 km)
Ceiling: 1300 feet AGL
Clouds: few clouds at 200 feet AGL
few clouds at 600 feet AGL
overcast cloud deck at 1300 feet AGL
Weather: BR  (mist)

METAR text: CYYT 180600Z 29007KT 2 1/4SM BR FEW002 OVC012 08/08 A2973 RMK SF2ST6 VIS HIER NE-SE SLP072
Conditions at: CYYT (ST JOHNS ARP , NL, CA) observed 0600 UTC 18 June 2019
Temperature: 8.0°C (46°F)
Dewpoint: 8.0°C (46°F) [RH = 100%]
Pressure (altimeter): 29.73 inches Hg (1006.9 mb)
[Sea-level pressure: 1007.2 mb]
Winds: from the WNW (290 degrees) at 8 MPH (7 knots; 3.6 m/s)
Visibility: 2.25 miles (3.62 km)
Ceiling: 1200 feet AGL
Clouds: few clouds at 200 feet AGL
overcast cloud deck at 1200 feet AGL
Weather: BR  (mist)

METAR text: CYYT 180546Z 29008KT 2SM BR OVC008 09/08 A2973 RMK FG2ST6 VIS HIER NE-SE SLP073
Conditions at: CYYT (ST JOHNS ARP , NL, CA) observed 0546 UTC 18 June 2019
Temperature: 9.0°C (48°F)
Dewpoint: 8.0°C (46°F) [RH = 93%]
Pressure (altimeter): 29.73 inches Hg (1006.9 mb)
[Sea-level pressure: 1007.3 mb]
Winds: from the WNW (290 degrees) at 9 MPH (8 knots; 4.1 m/s)
Visibility: 2.00 miles (3.22 km)
Ceiling: 800 feet AGL
Clouds: overcast cloud deck at 800 feet AGL
Weather: BR  (mist)

METAR text: CYYT 180500Z 28008KT 8SM SCT004 OVC009 09/09 A2974 RMK SF3ST5 SLP076
Conditions at: CYYT (ST JOHNS ARP , NL, CA) observed 0500 UTC 18 June 2019
Temperature: 9.0°C (48°F)
Dewpoint: 9.0°C (48°F) [RH = 100%]
Pressure (altimeter): 29.74 inches Hg (1007.2 mb)
[Sea-level pressure: 1007.6 mb]
Winds: from the W (280 degrees) at 9 MPH (8 knots; 4.1 m/s)
Visibility: 8 miles (13 km)
Ceiling: 900 feet AGL
Clouds: scattered clouds at 400 feet AGL
overcast cloud deck at 900 feet AGL
Weather: no significant weather observed at this time

METAR text: CYYT 180446Z 27006KT 12SM FEW006 OVC011 09/09 A2974 RMK SF2ST6 SLP076
Conditions at: CYYT (ST JOHNS ARP , NL, CA) observed 0446 UTC 18 June 2019
Temperature: 9.0°C (48°F)
Dewpoint: 9.0°C (48°F) [RH = 100%]
Pressure (altimeter): 29.74 inches Hg (1007.2 mb)
[Sea-level pressure: 1007.6 mb]
Winds: from the W (270 degrees) at 7 MPH (6 knots; 3.1 m/s)
Visibility: 12 miles (19 km)
Ceiling: 1100 feet AGL
Clouds: few clouds at 600 feet AGL
overcast cloud deck at 1100 feet AGL
Weather: no significant weather observed at this time

METAR text: CYYT 180400Z 25003KT 12SM BKN018 OVC110 08/08 A2975 RMK SC7AC1 SLP079
Conditions at: CYYT (ST JOHNS ARP , NL, CA) observed 0400 UTC 18 June 2019
Temperature: 8.0°C (46°F)
Dewpoint: 8.0°C (46°F) [RH = 100%]
Pressure (altimeter): 29.75 inches Hg (1007.5 mb)
[Sea-level pressure: 1007.9 mb]
Winds: from the WSW (250 degrees) at 3 MPH (3 knots; 1.5 m/s)
Visibility: 12 miles (19 km)
Ceiling: 1800 feet AGL
Clouds: broken clouds at 1800 feet AGL
overcast cloud deck at 11000 feet AGL
Weather: no significant weather observed at this time

METAR text: CYYT 180349Z 20005KT 190V260 6SM BR FEW007 OVC020 08/08 A2975 RMK SF1SC7 SLP081
Conditions at: CYYT (ST JOHNS ARP , NL, CA) observed 0349 UTC 18 June 2019
Temperature: 8.0°C (46°F)
Dewpoint: 8.0°C (46°F) [RH = 100%]
Pressure (altimeter): 29.75 inches Hg (1007.5 mb)
[Sea-level pressure: 1008.1 mb]
Winds: from the SSW (200 degrees) at 6 MPH (5 knots; 2.6 m/s)
Visibility: 6 miles (10 km)
Ceiling: 2000 feet AGL
Clouds: few clouds at 700 feet AGL
overcast cloud deck at 2000 feet AGL
Weather: BR  (mist)

METAR text: CYYT 180313Z 28009KT 4SM -DZ BR SCT004 OVC014 08/08 A2977 RMK SF3SC5 SLP085
Conditions at: CYYT (ST JOHNS ARP , NL, CA) observed 0313 UTC 18 June 2019
Temperature: 8.0°C (46°F)
Dewpoint: 8.0°C (46°F) [RH = 100%]
Pressure (altimeter): 29.77 inches Hg (1008.2 mb)
[Sea-level pressure: 1008.5 mb]
Winds: from the W (280 degrees) at 10 MPH (9 knots; 4.6 m/s)
Visibility: 4 miles ( 6 km)
Ceiling: 1400 feet AGL
Clouds: scattered clouds at 400 feet AGL
overcast cloud deck at 1400 feet AGL
Weather: -DZ BR  (light drizzle, mist)

METAR text: CYYT 180300Z 29006KT 5SM -DZ BR BKN005 OVC012 09/08 A2977 RMK ST5ST3 SLP086
Conditions at: CYYT (ST JOHNS ARP , NL, CA) observed 0300 UTC 18 June 2019
Temperature: 9.0°C (48°F)
Dewpoint: 8.0°C (46°F) [RH = 93%]
Pressure (altimeter): 29.77 inches Hg (1008.2 mb)
[Sea-level pressure: 1008.6 mb]
Winds: from the WNW (290 degrees) at 7 MPH (6 knots; 3.1 m/s)
Visibility: 5 miles ( 8 km)
Ceiling: 500 feet AGL
Clouds: broken clouds at 500 feet AGL
overcast cloud deck at 1200 feet AGL
Weather: -DZ BR  (light drizzle, mist)

METAR text: CYYT 180252Z 28005KT 5SM -DZ BR OVC004 08/08 A2977 RMK ST8 SLP088
Conditions at: CYYT (ST JOHNS ARP , NL, CA) observed 0252 UTC 18 June 2019
Temperature: 8.0°C (46°F)
Dewpoint: 8.0°C (46°F) [RH = 100%]
Pressure (altimeter): 29.77 inches Hg (1008.2 mb)
[Sea-level pressure: 1008.8 mb]
Winds: from the W (280 degrees) at 6 MPH (5 knots; 2.6 m/s)
Visibility: 5 miles ( 8 km)
Ceiling: 400 feet AGL
Clouds: overcast cloud deck at 400 feet AGL
Weather: -DZ BR  (light drizzle, mist)

METAR text: CYYT 180200Z 00000KT 10SM OVC004 08/07 A2978 RMK SF8 SLP089
Conditions at: CYYT (ST JOHNS ARP , NL, CA) observed 0200 UTC 18 June 2019
Temperature: 8.0°C (46°F)
Dewpoint: 7.0°C (45°F) [RH = 93%]
Pressure (altimeter): 29.78 inches Hg (1008.5 mb)
[Sea-level pressure: 1008.9 mb]
Winds: calm
Visibility: 10 or more miles (16+ km)
Ceiling: 400 feet AGL
Clouds: overcast cloud deck at 400 feet AGL
Weather: no significant weather observed at this time

METAR text: CYYT 180141Z 00000KT 10SM OVC004 08/07 A2978 RMK ST8 SLP090
Conditions at: CYYT (ST JOHNS ARP , NL, CA) observed 0141 UTC 18 June 2019
Temperature: 8.0°C (46°F)
Dewpoint: 7.0°C (45°F) [RH = 93%]
Pressure (altimeter): 29.78 inches Hg (1008.5 mb)
[Sea-level pressure: 1009.0 mb]
Winds: calm
Visibility: 10 or more miles (16+ km)
Ceiling: 400 feet AGL
Clouds: overcast cloud deck at 400 feet AGL
Weather: no significant weather observed at this time

METAR text: CYYT 180100Z 18002KT 10SM FEW004 OVC008 07/07 A2979 RMK SF2ST6 SLP092
Conditions at: CYYT (ST JOHNS ARP , NL, CA) observed 0100 UTC 18 June 2019
Temperature: 7.0°C (45°F)
Dewpoint: 7.0°C (45°F) [RH = 100%]
Pressure (altimeter): 29.79 inches Hg (1008.9 mb)
[Sea-level pressure: 1009.2 mb]
Winds: from the S (180 degrees) at 2 MPH (2 knots; 1.0 m/s)
Visibility: 10 or more miles (16+ km)
Ceiling: 800 feet AGL
Clouds: few clouds at 400 feet AGL
overcast cloud deck at 800 feet AGL
Weather: no significant weather observed at this time

METAR text: CYYT 180000Z VRB02KT 10SM FEW005 OVC009 07/06 A2979 RMK ST2ST6 SLP094
Conditions at: CYYT (ST JOHNS ARP , NL, CA) observed 0000 UTC 18 June 2019
Temperature: 7.0°C (45°F)
Dewpoint: 6.0°C (43°F) [RH = 93%]
Pressure (altimeter): 29.79 inches Hg (1008.9 mb)
[Sea-level pressure: 1009.4 mb]
Winds: variable direction winds at 2 MPH (2 knots; 1.0 m/s)
Visibility: 10 or more miles (16+ km)
Ceiling: 900 feet AGL
Clouds: few clouds at 500 feet AGL
overcast cloud deck at 900 feet AGL
Weather: no significant weather observed at this time

METAR text: CYYT 172315Z VRB02KT 4SM BR FEW004 OVC013 07/06 A2979 RMK ST2SC6 SLP095
Conditions at: CYYT (ST JOHNS ARP , NL, CA) observed 2315 UTC 17 June 2019
Temperature: 7.0°C (45°F)
Dewpoint: 6.0°C (43°F) [RH = 93%]
Pressure (altimeter): 29.79 inches Hg (1008.9 mb)
[Sea-level pressure: 1009.5 mb]
Winds: variable direction winds at 2 MPH (2 knots; 1.0 m/s)
Visibility: 4 miles ( 6 km)
Ceiling: 1300 feet AGL
Clouds: few clouds at 400 feet AGL
overcast cloud deck at 1300 feet AGL
Weather: BR  (mist)

METAR text: CYYT 172300Z VRB02KT 3SM BR SCT004 OVC008 07/06 A2980 RMK ST4ST4 SLP098
Conditions at: CYYT (ST JOHNS ARP , NL, CA) observed 2300 UTC 17 June 2019
Temperature: 7.0°C (45°F)
Dewpoint: 6.0°C (43°F) [RH = 93%]
Pressure (altimeter): 29.80 inches Hg (1009.2 mb)
[Sea-level pressure: 1009.8 mb]
Winds: variable direction winds at 2 MPH (2 knots; 1.0 m/s)
Visibility: 3 miles ( 5 km)
Ceiling: 800 feet AGL
Clouds: scattered clouds at 400 feet AGL
overcast cloud deck at 800 feet AGL
Weather: BR  (mist)

METAR text: CYYT 172224Z 08003KT 2 1/2SM BR OVC003 07/06 A2981 RMK ST8 SLP100
Conditions at: CYYT (ST JOHNS ARP , NL, CA) observed 2224 UTC 17 June 2019
Temperature: 7.0°C (45°F)
Dewpoint: 6.0°C (43°F) [RH = 93%]
Pressure (altimeter): 29.81 inches Hg (1009.6 mb)
[Sea-level pressure: 1010.0 mb]
Winds: from the E (80 degrees) at 3 MPH (3 knots; 1.5 m/s)
Visibility: 2.50 miles (4.02 km)
Ceiling: 300 feet AGL
Clouds: overcast cloud deck at 300 feet AGL
Weather: BR  (mist)

METAR text: CYYT 172200Z 11003KT 080V140 5SM BR OVC003 07/07 A2981 RMK ST8 VIS LWR NE-SE SLP101
Conditions at: CYYT (ST JOHNS ARP , NL, CA) observed 2200 UTC 17 June 2019
Temperature: 7.0°C (45°F)
Dewpoint: 7.0°C (45°F) [RH = 100%]
Pressure (altimeter): 29.81 inches Hg (1009.6 mb)
[Sea-level pressure: 1010.1 mb]
Winds: from the ESE (110 degrees) at 3 MPH (3 knots; 1.5 m/s)
Visibility: 5 miles ( 8 km)
Ceiling: 300 feet AGL
Clouds: overcast cloud deck at 300 feet AGL
Weather: BR  (mist)

METAR text: CYYT 172139Z 13002KT 5SM BR BKN004 OVC011 07/07 A2982 RMK ST5ST3 VIS LWR NE-SE SLP102
Conditions at: CYYT (ST JOHNS ARP , NL, CA) observed 2139 UTC 17 June 2019
Temperature: 7.0°C (45°F)
Dewpoint: 7.0°C (45°F) [RH = 100%]
Pressure (altimeter): 29.82 inches Hg (1009.9 mb)
[Sea-level pressure: 1010.2 mb]
Winds: from the SE (130 degrees) at 2 MPH (2 knots; 1.0 m/s)
Visibility: 5 miles ( 8 km)
Ceiling: 400 feet AGL
Clouds: broken clouds at 400 feet AGL
overcast cloud deck at 1100 feet AGL
Weather: BR  (mist)

METAR text: CYYT 172135Z 14003KT 120V180 5SM BR SCT004 OVC011 07/07 A2982 RMK ST3ST5 VIS LWR NE-SE SLP103
Conditions at: CYYT (ST JOHNS ARP , NL, CA) observed 2135 UTC 17 June 2019
Temperature: 7.0°C (45°F)
Dewpoint: 7.0°C (45°F) [RH = 100%]
Pressure (altimeter): 29.82 inches Hg (1009.9 mb)
[Sea-level pressure: 1010.3 mb]
Winds: from the SE (140 degrees) at 3 MPH (3 knots; 1.5 m/s)
Visibility: 5 miles ( 8 km)
Ceiling: 1100 feet AGL
Clouds: scattered clouds at 400 feet AGL
overcast cloud deck at 1100 feet AGL
Weather: BR  (mist)

METAR text: CYYT 172100Z 13003KT 1 1/2SM BR OVC003 07/06 A2983 RMK FG7ST1 SLP105
Conditions at: CYYT (ST JOHNS ARP , NL, CA) observed 2100 UTC 17 June 2019
Temperature: 7.0°C (45°F)
Dewpoint: 6.0°C (43°F) [RH = 93%]
Pressure (altimeter): 29.83 inches Hg (1010.2 mb)
[Sea-level pressure: 1010.5 mb]
Winds: from the SE (130 degrees) at 3 MPH (3 knots; 1.5 m/s)
Visibility: 1.50 miles (2.41 km)
Ceiling: 300 feet AGL
Clouds: overcast cloud deck at 300 feet AGL
Weather: BR  (mist)

METAR text: CYYT 172050Z 14002KT 1SM R11/P6000FT/N R16/P6000FT/N BR VV003 07/06 A2983 RMK FG8 SLP107
Conditions at: CYYT (ST JOHNS ARP , NL, CA) observed 2050 UTC 17 June 2019
Temperature: 7.0°C (45°F)
Dewpoint: 6.0°C (43°F) [RH = 93%]
Pressure (altimeter): 29.83 inches Hg (1010.2 mb)
[Sea-level pressure: 1010.7 mb]
Winds: from the SE (140 degrees) at 2 MPH (2 knots; 1.0 m/s)
Visibility: 1.00 miles (1.61 km)
Ceiling: indefinite ceiling with vertical visibility of 300 feet AGL
Clouds: obscured sky
Weather: BR  (mist)

METAR text: CYYT 172029Z 13004KT 1/2SM R11/P6000FT/N R16/5000VP6000FT/D FG VV002 07/06 A2984 RMK FG8 SLP109
Conditions at: CYYT (ST JOHNS ARP , NL, CA) observed 2029 UTC 17 June 2019
Temperature: 7.0°C (45°F)
Dewpoint: 6.0°C (43°F) [RH = 93%]
Pressure (altimeter): 29.84 inches Hg (1010.6 mb)
[Sea-level pressure: 1010.9 mb]
Winds: from the SE (130 degrees) at 5 MPH (4 knots; 2.1 m/s)
Visibility: 0.50 miles (0.80 km)
Ceiling: indefinite ceiling with vertical visibility of 200 feet AGL
Clouds: obscured sky
Weather: FG  (fog)

METAR text: CYYT 172000Z 13006KT 3/8SM R11/P6000FT/N R16/3000V5500FT/U FG VV002 07/06 A2984 RMK FG8 SLP111
Conditions at: CYYT (ST JOHNS ARP , NL, CA) observed 2000 UTC 17 June 2019
Temperature: 7.0°C (45°F)
Dewpoint: 6.0°C (43°F) [RH = 93%]
Pressure (altimeter): 29.84 inches Hg (1010.6 mb)
[Sea-level pressure: 1011.1 mb]
Winds: from the SE (130 degrees) at 7 MPH (6 knots; 3.1 m/s)
Visibility: 0.38 miles (0.61 km)
Ceiling: indefinite ceiling with vertical visibility of 200 feet AGL
Clouds: obscured sky
Weather: FG  (fog)

METAR text: CYYT 171958Z 13004KT 3/8SM R11/P6000FT/N R16/2800V5500FT/U FG VV002 07/06 A2984 RMK FG8 SLP111
Conditions at: CYYT (ST JOHNS ARP , NL, CA) observed 1958 UTC 17 June 2019
Temperature: 7.0°C (45°F)
Dewpoint: 6.0°C (43°F) [RH = 93%]
Pressure (altimeter): 29.84 inches Hg (1010.6 mb)
[Sea-level pressure: 1011.1 mb]
Winds: from the SE (130 degrees) at 5 MPH (4 knots; 2.1 m/s)
Visibility: 0.38 miles (0.61 km)
Ceiling: indefinite ceiling with vertical visibility of 200 feet AGL
Clouds: obscured sky
Weather: FG  (fog)

METAR text: CYYT 171900Z 14006KT 1/4SM R11/P6000FT/N R16/3500FT/N FG VV001 07/07 A2987 RMK FG8 SLP119
Conditions at: CYYT (ST JOHNS ARP , NL, CA) observed 1900 UTC 17 June 2019
Temperature: 7.0°C (45°F)
Dewpoint: 7.0°C (45°F) [RH = 100%]
Pressure (altimeter): 29.87 inches Hg (1011.6 mb)
[Sea-level pressure: 1011.9 mb]
Winds: from the SE (140 degrees) at 7 MPH (6 knots; 3.1 m/s)
Visibility: 0.25 miles (0.40 km)
Ceiling: indefinite ceiling with vertical visibility of 100 feet AGL
Clouds: obscured sky
Weather: FG  (fog)

METAR text: CYYT 171800Z 13008KT 1/4SM R11/4500VP6000FT/U R16/1400V2000FT/N FG VV001 07/07 A2987 RMK FG8 SLP121
Conditions at: CYYT (ST JOHNS ARP , NL, CA) observed 1800 UTC 17 June 2019
Temperature: 7.0°C (45°F)
Dewpoint: 7.0°C (45°F) [RH = 100%]
Pressure (altimeter): 29.87 inches Hg (1011.6 mb)
[Sea-level pressure: 1012.1 mb]
Winds: from the SE (130 degrees) at 9 MPH (8 knots; 4.1 m/s)
Visibility: 0.25 miles (0.40 km)
Ceiling: indefinite ceiling with vertical visibility of 100 feet AGL
Clouds: obscured sky
Weather: FG  (fog)

METAR text: CYYT 171700Z 13009KT 1/4SM R11/5000FT/N R16/1400V2000FT/N FG VV001 07/07 A2987 RMK FG8 SLP122
Conditions at: CYYT (ST JOHNS ARP , NL, CA) observed 1700 UTC 17 June 2019
Temperature: 7.0°C (45°F)
Dewpoint: 7.0°C (45°F) [RH = 100%]
Pressure (altimeter): 29.87 inches Hg (1011.6 mb)
[Sea-level pressure: 1012.2 mb]
Winds: from the SE (130 degrees) at 10 MPH (9 knots; 4.6 m/s)
Visibility: 0.25 miles (0.40 km)
Ceiling: indefinite ceiling with vertical visibility of 100 feet AGL
Clouds: obscured sky
Weather: FG  (fog)

METAR text: CYYT 171636Z 13010KT 3/8SM R11/5500VP6000FT/U R16/2800V5000FT/N FG VV002 08/07 A2988 RMK FG8 SLP125
Conditions at: CYYT (ST JOHNS ARP , NL, CA) observed 1636 UTC 17 June 2019
Temperature: 8.0°C (46°F)
Dewpoint: 7.0°C (45°F) [RH = 93%]
Pressure (altimeter): 29.88 inches Hg (1011.9 mb)
[Sea-level pressure: 1012.5 mb]
Winds: from the SE (130 degrees) at 12 MPH (10 knots; 5.1 m/s)
Visibility: 0.38 miles (0.61 km)
Ceiling: indefinite ceiling with vertical visibility of 200 feet AGL
Clouds: obscured sky
Weather: FG  (fog)

METAR text: CYYT 171600Z 15008KT 1/4SM R11/2600V4500FT/N R16/1600V2200FT/U -DZ FG VV001 07/07 A2990 RMK FG8 SLP130
Conditions at: CYYT (ST JOHNS ARP , NL, CA) observed 1600 UTC 17 June 2019
Temperature: 7.0°C (45°F)
Dewpoint: 7.0°C (45°F) [RH = 100%]
Pressure (altimeter): 29.90 inches Hg (1012.6 mb)
[Sea-level pressure: 1013.0 mb]
Winds: from the SSE (150 degrees) at 9 MPH (8 knots; 4.1 m/s)
Visibility: 0.25 miles (0.40 km)
Ceiling: indefinite ceiling with vertical visibility of 100 feet AGL
Clouds: obscured sky
Weather: -DZ FG  (light drizzle, fog)

METAR text: CYYT 171541Z 14010KT 1/4SM R11/3000V5000FT/D R16/2400V3500FT/U -DZ FG VV001 07/07 A2990 RMK FG8 SLP131
Conditions at: CYYT (ST JOHNS ARP , NL, CA) observed 1541 UTC 17 June 2019
Temperature: 7.0°C (45°F)
Dewpoint: 7.0°C (45°F) [RH = 100%]
Pressure (altimeter): 29.90 inches Hg (1012.6 mb)
[Sea-level pressure: 1013.1 mb]
Winds: from the SE (140 degrees) at 12 MPH (10 knots; 5.1 m/s)
Visibility: 0.25 miles (0.40 km)
Ceiling: indefinite ceiling with vertical visibility of 100 feet AGL
Clouds: obscured sky
Weather: -DZ FG  (light drizzle, fog)

METAR text: CYYT 171500Z 14008KT 1/2SM R11/5500VP6000FT/N R16/5500VP6000FT/D -DZ FG VV002 07/07 A2990 RMK FG8 SLP132
Conditions at: CYYT (ST JOHNS ARP , NL, CA) observed 1500 UTC 17 June 2019
Temperature: 7.0°C (45°F)
Dewpoint: 7.0°C (45°F) [RH = 100%]
Pressure (altimeter): 29.90 inches Hg (1012.6 mb)
[Sea-level pressure: 1013.2 mb]
Winds: from the SE (140 degrees) at 9 MPH (8 knots; 4.1 m/s)
Visibility: 0.50 miles (0.80 km)
Ceiling: indefinite ceiling with vertical visibility of 200 feet AGL
Clouds: obscured sky
Weather: -DZ FG  (light drizzle, fog)

METAR text: CYYT 171433Z 14009KT 1/2SM R11/5000VP6000FT/D R16/5000FT/N -DZ FG VV002 07/07 A2991 RMK FG8 SLP133
Conditions at: CYYT (ST JOHNS ARP , NL, CA) observed 1433 UTC 17 June 2019
Temperature: 7.0°C (45°F)
Dewpoint: 7.0°C (45°F) [RH = 100%]
Pressure (altimeter): 29.91 inches Hg (1013.0 mb)
[Sea-level pressure: 1013.3 mb]
Winds: from the SE (140 degrees) at 10 MPH (9 knots; 4.6 m/s)
Visibility: 0.50 miles (0.80 km)
Ceiling: indefinite ceiling with vertical visibility of 200 feet AGL
Clouds: obscured sky
Weather: -DZ FG  (light drizzle, fog)

METAR text: CYYT 171400Z 13008KT 10SM -DZ BKN002 OVC030 07/07 A2991 RMK SF7SC1 FG BNK E-S VIS LWR S SLP136
Conditions at: CYYT (ST JOHNS ARP , NL, CA) observed 1400 UTC 17 June 2019
Temperature: 7.0°C (45°F)
Dewpoint: 7.0°C (45°F) [RH = 100%]
Pressure (altimeter): 29.91 inches Hg (1013.0 mb)
[Sea-level pressure: 1013.6 mb]
Winds: from the SE (130 degrees) at 9 MPH (8 knots; 4.1 m/s)
Visibility: 10 or more miles (16+ km)
Ceiling: 200 feet AGL
Clouds: broken clouds at 200 feet AGL
overcast cloud deck at 3000 feet AGL
Weather: -DZ  (light drizzle)

METAR text: CYYT 171341Z 13009KT 12SM BKN003 OVC030 08/06 A2991 RMK SF6SC2 SLP136
Conditions at: CYYT (ST JOHNS ARP , NL, CA) observed 1341 UTC 17 June 2019
Temperature: 8.0°C (46°F)
Dewpoint: 6.0°C (43°F) [RH = 87%]
Pressure (altimeter): 29.91 inches Hg (1013.0 mb)
[Sea-level pressure: 1013.6 mb]
Winds: from the SE (130 degrees) at 10 MPH (9 knots; 4.6 m/s)
Visibility: 12 miles (19 km)
Ceiling: 300 feet AGL
Clouds: broken clouds at 300 feet AGL
overcast cloud deck at 3000 feet AGL
Weather: no significant weather observed at this time

METAR text: CYYT 171300Z 15007KT 15SM FEW004 OVC030 08/07 A2992 RMK SF2SC6 SLP138
Conditions at: CYYT (ST JOHNS ARP , NL, CA) observed 1300 UTC 17 June 2019
Temperature: 8.0°C (46°F)
Dewpoint: 7.0°C (45°F) [RH = 93%]
Pressure (altimeter): 29.92 inches Hg (1013.3 mb)
[Sea-level pressure: 1013.8 mb]
Winds: from the SSE (150 degrees) at 8 MPH (7 knots; 3.6 m/s)
Visibility: 15 miles (24 km)
Ceiling: 3000 feet AGL
Clouds: few clouds at 400 feet AGL
overcast cloud deck at 3000 feet AGL
Weather: no significant weather observed at this time

METAR text: CYYT 171200Z 14005KT 15SM FEW004 BKN016 OVC035 09/07 A2993 RMK SF2SC5SC1 SLP139
Conditions at: CYYT (ST JOHNS ARP , NL, CA) observed 1200 UTC 17 June 2019
Temperature: 9.0°C (48°F)
Dewpoint: 7.0°C (45°F) [RH = 87%]
Pressure (altimeter): 29.93 inches Hg (1013.6 mb)
[Sea-level pressure: 1013.9 mb]
Winds: from the SE (140 degrees) at 6 MPH (5 knots; 2.6 m/s)
Visibility: 15 miles (24 km)
Ceiling: 1600 feet AGL
Clouds: few clouds at 400 feet AGL
broken clouds at 1600 feet AGL
overcast cloud deck at 3500 feet AGL
Weather: no significant weather observed at this time

METAR text: CYYT 171131Z 13005KT 15SM FEW005 BKN035 08/07 A2994 RMK SF2SC5 VIS LWR S SLP142
Conditions at: CYYT (ST JOHNS ARP , NL, CA) observed 1131 UTC 17 June 2019
Temperature: 8.0°C (46°F)
Dewpoint: 7.0°C (45°F) [RH = 93%]
Pressure (altimeter): 29.94 inches Hg (1014.0 mb)
[Sea-level pressure: 1014.2 mb]
Winds: from the SE (130 degrees) at 6 MPH (5 knots; 2.6 m/s)
Visibility: 15 miles (24 km)
Ceiling: 3500 feet AGL
Clouds: few clouds at 500 feet AGL
broken clouds at 3500 feet AGL
Weather: no significant weather observed at this time

METAR text: CYYT 171100Z 14003KT 10SM BKN003 OVC060 08/07 A2994 RMK SF5SC3 VIS LWR S SLP142
Conditions at: CYYT (ST JOHNS ARP , NL, CA) observed 1100 UTC 17 June 2019
Temperature: 8.0°C (46°F)
Dewpoint: 7.0°C (45°F) [RH = 93%]
Pressure (altimeter): 29.94 inches Hg (1014.0 mb)
[Sea-level pressure: 1014.2 mb]
Winds: from the SE (140 degrees) at 3 MPH (3 knots; 1.5 m/s)
Visibility: 10 or more miles (16+ km)
Ceiling: 300 feet AGL
Clouds: broken clouds at 300 feet AGL
overcast cloud deck at 6000 feet AGL
Weather: no significant weather observed at this time

METAR text: CYYT 171029Z 15005KT 10SM OVC003 08/07 A2994 RMK ST8 VIS LWR S SLP142
Conditions at: CYYT (ST JOHNS ARP , NL, CA) observed 1029 UTC 17 June 2019
Temperature: 8.0°C (46°F)
Dewpoint: 7.0°C (45°F) [RH = 93%]
Pressure (altimeter): 29.94 inches Hg (1014.0 mb)
[Sea-level pressure: 1014.2 mb]
Winds: from the SSE (150 degrees) at 6 MPH (5 knots; 2.6 m/s)
Visibility: 10 or more miles (16+ km)
Ceiling: 300 feet AGL
Clouds: overcast cloud deck at 300 feet AGL
Weather: no significant weather observed at this time

METAR text: CYYT 171000Z 16003KT 4SM BR OVC002 07/07 A2994 RMK ST8 SLP142
Conditions at: CYYT (ST JOHNS ARP , NL, CA) observed 1000 UTC 17 June 2019
Temperature: 7.0°C (45°F)
Dewpoint: 7.0°C (45°F) [RH = 100%]
Pressure (altimeter): 29.94 inches Hg (1014.0 mb)
[Sea-level pressure: 1014.2 mb]
Winds: from the SSE (160 degrees) at 3 MPH (3 knots; 1.5 m/s)
Visibility: 4 miles ( 6 km)
Ceiling: 200 feet AGL
Clouds: overcast cloud deck at 200 feet AGL
Weather: BR  (mist)

METAR text: CYYT 170920Z 18004KT 150V210 1 1/4SM BR OVC002 07/07 A2994 RMK FG6ST2 SLP145
Conditions at: CYYT (ST JOHNS ARP , NL, CA) observed 0920 UTC 17 June 2019
Temperature: 7.0°C (45°F)
Dewpoint: 7.0°C (45°F) [RH = 100%]
Pressure (altimeter): 29.94 inches Hg (1014.0 mb)
[Sea-level pressure: 1014.5 mb]
Winds: from the S (180 degrees) at 5 MPH (4 knots; 2.1 m/s)
Visibility: 1.25 miles (2.01 km)
Ceiling: 200 feet AGL
Clouds: overcast cloud deck at 200 feet AGL
Weather: BR  (mist)

METAR text: CYYT 170915Z 19003KT 100V210 5/8SM R11/P6000FT/N R16/P6000FT/N BR VV003 07/07 A2994 RMK FG8 SLP146
Conditions at: CYYT (ST JOHNS ARP , NL, CA) observed 0915 UTC 17 June 2019
Temperature: 7.0°C (45°F)
Dewpoint: 7.0°C (45°F) [RH = 100%]
Pressure (altimeter): 29.94 inches Hg (1014.0 mb)
[Sea-level pressure: 1014.6 mb]
Winds: from the S (190 degrees) at 3 MPH (3 knots; 1.5 m/s)
Visibility: 0.63 miles (1.01 km)
Ceiling: indefinite ceiling with vertical visibility of 300 feet AGL
Clouds: obscured sky
Weather: BR  (mist)

METAR text: CYYT 170908Z 13002KT 3/8SM R11/P6000FT/D R16/P6000FT/D FG VV003 07/07 A2994 RMK FG8 SLP145
Conditions at: CYYT (ST JOHNS ARP , NL, CA) observed 0908 UTC 17 June 2019
Temperature: 7.0°C (45°F)
Dewpoint: 7.0°C (45°F) [RH = 100%]
Pressure (altimeter): 29.94 inches Hg (1014.0 mb)
[Sea-level pressure: 1014.5 mb]
Winds: from the SE (130 degrees) at 2 MPH (2 knots; 1.0 m/s)
Visibility: 0.38 miles (0.61 km)
Ceiling: indefinite ceiling with vertical visibility of 300 feet AGL
Clouds: obscured sky
Weather: FG  (fog)

METAR text: CYYT 170900Z 12003KT 070V130 1SM R11/P6000FT/U R16/P6000FT/U BR OVC002 07/07 A2994 RMK FG6ST2 VIS HIER W SLP144
Conditions at: CYYT (ST JOHNS ARP , NL, CA) observed 0900 UTC 17 June 2019
Temperature: 7.0°C (45°F)
Dewpoint: 7.0°C (45°F) [RH = 100%]
Pressure (altimeter): 29.94 inches Hg (1014.0 mb)
[Sea-level pressure: 1014.4 mb]
Winds: from the ESE (120 degrees) at 3 MPH (3 knots; 1.5 m/s)
Visibility: 1.00 miles (1.61 km)
Ceiling: 200 feet AGL
Clouds: overcast cloud deck at 200 feet AGL
Weather: BR  (mist)

METAR text: CYYT 170847Z 13005KT 2SM BR BKN004 OVC080 08/08 A2994 RMK SF7AC1 VIS LWR E VIS HIER SW-W SLP143
Conditions at: CYYT (ST JOHNS ARP , NL, CA) observed 0847 UTC 17 June 2019
Temperature: 8.0°C (46°F)
Dewpoint: 8.0°C (46°F) [RH = 100%]
Pressure (altimeter): 29.94 inches Hg (1014.0 mb)
[Sea-level pressure: 1014.3 mb]
Winds: from the SE (130 degrees) at 6 MPH (5 knots; 2.6 m/s)
Visibility: 2.00 miles (3.22 km)
Ceiling: 400 feet AGL
Clouds: broken clouds at 400 feet AGL
overcast cloud deck at 8000 feet AGL
Weather: BR  (mist)

METAR text: CYYT 170839Z 12004KT 5SM BR FEW003 FEW040 BKN080 07/07 A2994 RMK SF1SC1AC5 VIS LWR N-SE SLP143
Conditions at: CYYT (ST JOHNS ARP , NL, CA) observed 0839 UTC 17 June 2019
Temperature: 7.0°C (45°F)
Dewpoint: 7.0°C (45°F) [RH = 100%]
Pressure (altimeter): 29.94 inches Hg (1014.0 mb)
[Sea-level pressure: 1014.3 mb]
Winds: from the ESE (120 degrees) at 5 MPH (4 knots; 2.1 m/s)
Visibility: 5 miles ( 8 km)
Ceiling: 8000 feet AGL
Clouds: few clouds at 300 feet AGL
few clouds at 4000 feet AGL
broken clouds at 8000 feet AGL
Weather: BR  (mist)

METAR text: CYYT 170800Z 20007KT 130V220 2 1/2SM BR OVC003 08/07 A2995 RMK ST8 VIS LWR NE-SE VIS HIER NW SLP147
Conditions at: CYYT (ST JOHNS ARP , NL, CA) observed 0800 UTC 17 June 2019
Temperature: 8.0°C (46°F)
Dewpoint: 7.0°C (45°F) [RH = 93%]
Pressure (altimeter): 29.95 inches Hg (1014.3 mb)
[Sea-level pressure: 1014.7 mb]
Winds: from the SSW (200 degrees) at 8 MPH (7 knots; 3.6 m/s)
Visibility: 2.50 miles (4.02 km)
Ceiling: 300 feet AGL
Clouds: overcast cloud deck at 300 feet AGL
Weather: BR  (mist)

METAR text: CYYT 170726Z 15006KT 2 1/2SM BR BKN003 BKN021 BKN130 07/06 A2994 RMK SF5SC1AC1 VIS LWR E VIS HIER SW-NW SLP146
Conditions at: CYYT (ST JOHNS ARP , NL, CA) observed 0726 UTC 17 June 2019
Temperature: 7.0°C (45°F)
Dewpoint: 6.0°C (43°F) [RH = 93%]
Pressure (altimeter): 29.94 inches Hg (1014.0 mb)
[Sea-level pressure: 1014.6 mb]
Winds: from the SSE (150 degrees) at 7 MPH (6 knots; 3.1 m/s)
Visibility: 2.50 miles (4.02 km)
Ceiling: 300 feet AGL
Clouds: broken clouds at 300 feet AGL
broken clouds at 2100 feet AGL
broken clouds at 13000 feet AGL
Weather: BR  (mist)

METAR text: CYYT 170700Z 18003KT 12SM VCFG FEW005 BKN022 OVC100 08/07 A2995 RMK SF2SC5AC1 VIS LWR N-SE SLP149
Conditions at: CYYT (ST JOHNS ARP , NL, CA) observed 0700 UTC 17 June 2019
Temperature: 8.0°C (46°F)
Dewpoint: 7.0°C (45°F) [RH = 93%]
Pressure (altimeter): 29.95 inches Hg (1014.3 mb)
[Sea-level pressure: 1014.9 mb]
Winds: from the S (180 degrees) at 3 MPH (3 knots; 1.5 m/s)
Visibility: 12 miles (19 km)
Ceiling: 2200 feet AGL
Clouds: few clouds at 500 feet AGL
broken clouds at 2200 feet AGL
overcast cloud deck at 10000 feet AGL
Weather: VCFG  (fog in vicinity)

Forecast for: CYYT (ST JOHNS ARP , NL, CA)
Text: TAF CYYT 181738Z 1818/1918 30012G22KT P6SM BKN040
Forecast period: 1800 to 2200 UTC 18 June 2019
Forecast type: FROM: standard forecast or significant change
Winds: from the WNW (300 degrees) at 14 MPH (12 knots; 6.2 m/s)
gusting to 25 MPH (22 knots; 11.3 m/s)
Visibility: 6 or more miles 10+ km)
Ceiling: 4000 feet AGL
Clouds: broken clouds at 4000 feet AGL
Weather: no significant weather forecast for this period
Text: FM182200 35005KT 6SM -RA BR OVC025
Forecast period: 2200 UTC 18 June 2019 to 0200 UTC 19 June 2019
Forecast type: FROM: standard forecast or significant change
Winds: from the N (350 degrees) at 6 MPH (5 knots; 2.6 m/s)
Visibility: 6 miles (10 km)
Ceiling: 2500 feet AGL
Clouds: overcast cloud deck at 2500 feet AGL
Weather: -RA BR  (light rain, mist)
Text: TEMPO 1822/1902 4SM -RA BR OVC012
Forecast period: 2200 UTC 18 June 2019 to 0200 UTC 19 June 2019
Forecast type: TEMPORARY: The following changes expected for less than half the time period
Visibility: 4 miles (6 km)
Ceiling: 1200 feet AGL
Clouds: overcast cloud deck at 1200 feet AGL
Weather: -RA BR  (light rain, mist)
Text: FM190200 36005KT 6SM BR BKN050
Forecast period: 0200 to 0600 UTC 19 June 2019
Forecast type: FROM: standard forecast or significant change
Winds: from the N (360 degrees) at 6 MPH (5 knots; 2.6 m/s)
Visibility: 6 miles (10 km)
Ceiling: 5000 feet AGL
Clouds: broken clouds at 5000 feet AGL
Weather: BR  (mist)
Text: PROB30 1903/1906 1SM BR
Forecast period: 0300 to 0600 UTC 19 June 2019
Forecast type: PROBABLE: 30 percent likelihood of the following during this time
Visibility: 1.00 miles (1.61 km)
Ceiling: unknown
Clouds: missing
Weather: BR  (mist)
Text: FM190600 27005KT 6SM BR OVC007
Forecast period: 0600 to 1000 UTC 19 June 2019
Forecast type: FROM: standard forecast or significant change
Winds: from the W (270 degrees) at 6 MPH (5 knots; 2.6 m/s)
Visibility: 6 miles (10 km)
Ceiling: 700 feet AGL
Clouds: overcast cloud deck at 700 feet AGL
Weather: BR  (mist)
Text: PROB30 1906/1910 1SM BR BKN003
Forecast period: 0600 to 1000 UTC 19 June 2019
Forecast type: PROBABLE: 30 percent likelihood of the following during this time
Visibility: 1.00 miles (1.61 km)
Ceiling: 300 feet AGL
Clouds: broken clouds at 300 feet AGL
Weather: BR  (mist)
Text: FM191000 30010KT P6SM OVC010 RMK NXT FCST BY 190000Z
Forecast period: 1000 to 1800 UTC 19 June 2019
Forecast type: FROM: standard forecast or significant change
Winds: from the WNW (300 degrees) at 12 MPH (10 knots; 5.1 m/s)
Visibility: 6 or more miles 10+ km)
Ceiling: 1000 feet AGL
Clouds: overcast cloud deck at 1000 feet AGL
Weather: no significant weather forecast for this period